sensor_id;sensor_type;location;lat;lon;timestamp;temperature;humidity
5617;DHT22;2830;50.656;7.568;2024-02-04T00:02:10;8.50;99.90
5617;DHT22;2830;50.656;7.568;2024-02-04T00:04:41;8.40;99.90
5617;DHT22;2830;50.656;7.568;2024-02-04T00:07:08;8.50;99.90
5617;DHT22;2830;50.656;7.568;2024-02-04T00:09:35;8.40;99.90
5617;DHT22;2830;50.656;7.568;2024-02-04T00:12:03;8.40;99.90
5617;DHT22;2830;50.656;7.568;2024-02-04T00:14:31;8.40;99.90
5617;DHT22;2830;50.656;7.568;2024-02-04T00:16:58;8.40;99.90
5617;DHT22;2830;50.656;7.568;2024-02-04T00:19:26;8.40;99.90
5617;DHT22;2830;50.656;7.568;2024-02-04T00:21:53;8.40;99.90
5617;DHT22;2830;50.656;7.568;2024-02-04T00:24:20;8.40;99.90
5617;DHT22;2830;50.656;7.568;2024-02-04T00:26:48;8.50;99.90
5617;DHT22;2830;50.656;7.568;2024-02-04T00:29:15;8.40;99.90
5617;DHT22;2830;50.656;7.568;2024-02-04T00:31:42;8.40;99.90
5617;DHT22;2830;50.656;7.568;2024-02-04T00:34:09;8.50;99.90
5617;DHT22;2830;50.656;7.568;2024-02-04T00:36:36;8.40;99.90
5617;DHT22;2830;50.656;7.568;2024-02-04T00:39:03;8.40;99.90
5617;DHT22;2830;50.656;7.568;2024-02-04T00:41:30;8.40;99.90
5617;DHT22;2830;50.656;7.568;2024-02-04T00:43:57;8.40;99.90
5617;DHT22;2830;50.656;7.568;2024-02-04T00:46:24;8.50;99.90
5617;DHT22;2830;50.656;7.568;2024-02-04T00:48:51;8.40;99.90
5617;DHT22;2830;50.656;7.568;2024-02-04T00:51:18;8.40;99.90
5617;DHT22;2830;50.656;7.568;2024-02-04T00:53:46;8.40;99.90
5617;DHT22;2830;50.656;7.568;2024-02-04T00:56:13;8.50;99.90
5617;DHT22;2830;50.656;7.568;2024-02-04T00:58:40;8.40;99.90
5617;DHT22;2830;50.656;7.568;2024-02-04T01:01:07;8.40;99.90
5617;DHT22;2830;50.656;7.568;2024-02-04T01:03:34;8.40;99.90
5617;DHT22;2830;50.656;7.568;2024-02-04T01:06:01;8.50;99.90
5617;DHT22;2830;50.656;7.568;2024-02-04T01:08:28;8.50;99.90
5617;DHT22;2830;50.656;7.568;2024-02-04T01:10:55;8.50;99.90
5617;DHT22;2830;50.656;7.568;2024-02-04T01:13:22;8.40;99.90
5617;DHT22;2830;50.656;7.568;2024-02-04T01:15:49;8.40;99.90
5617;DHT22;2830;50.656;7.568;2024-02-04T01:18:16;8.40;99.90
5617;DHT22;2830;50.656;7.568;2024-02-04T01:20:43;8.30;99.90
5617;DHT22;2830;50.656;7.568;2024-02-04T01:23:10;8.40;99.90
5617;DHT22;2830;50.656;7.568;2024-02-04T01:25:37;8.40;99.90
5617;DHT22;2830;50.656;7.568;2024-02-04T01:28:09;8.40;99.90
5617;DHT22;2830;50.656;7.568;2024-02-04T01:30:36;8.40;99.90
5617;DHT22;2830;50.656;7.568;2024-02-04T01:33:04;8.40;99.90
5617;DHT22;2830;50.656;7.568;2024-02-04T01:35:31;8.30;99.90
5617;DHT22;2830;50.656;7.568;2024-02-04T01:37:58;8.30;99.90
5617;DHT22;2830;50.656;7.568;2024-02-04T01:40:28;8.40;99.90
5617;DHT22;2830;50.656;7.568;2024-02-04T01:42:55;8.40;99.90
5617;DHT22;2830;50.656;7.568;2024-02-04T01:45:23;8.40;99.90
5617;DHT22;2830;50.656;7.568;2024-02-04T01:47:51;8.40;99.90
5617;DHT22;2830;50.656;7.568;2024-02-04T01:50:20;8.40;99.90
5617;DHT22;2830;50.656;7.568;2024-02-04T01:52:47;8.30;99.90
5617;DHT22;2830;50.656;7.568;2024-02-04T01:55:15;8.30;99.90
5617;DHT22;2830;50.656;7.568;2024-02-04T01:57:42;8.40;99.90
5617;DHT22;2830;50.656;7.568;2024-02-04T02:00:09;8.30;99.90
5617;DHT22;2830;50.656;7.568;2024-02-04T02:02:39;8.40;99.90
5617;DHT22;2830;50.656;7.568;2024-02-04T02:05:08;8.40;99.90
5617;DHT22;2830;50.656;7.568;2024-02-04T02:07:36;8.40;99.90
5617;DHT22;2830;50.656;7.568;2024-02-04T02:10:03;8.40;99.90
5617;DHT22;2830;50.656;7.568;2024-02-04T02:15:35;8.40;99.90
5617;DHT22;2830;50.656;7.568;2024-02-04T02:24:15;8.40;99.90
5617;DHT22;2830;50.656;7.568;2024-02-04T02:26:45;8.40;99.90
5617;DHT22;2830;50.656;7.568;2024-02-04T02:29:15;8.40;99.90
5617;DHT22;2830;50.656;7.568;2024-02-04T02:31:43;8.40;99.90
5617;DHT22;2830;50.656;7.568;2024-02-04T02:34:15;8.50;99.90
5617;DHT22;2830;50.656;7.568;2024-02-04T02:40:08;8.40;99.90
5617;DHT22;2830;50.656;7.568;2024-02-04T02:42:38;8.50;99.90
5617;DHT22;2830;50.656;7.568;2024-02-04T02:45:09;8.50;99.90
5617;DHT22;2830;50.656;7.568;2024-02-04T02:47:38;8.50;99.90
5617;DHT22;2830;50.656;7.568;2024-02-04T02:50:07;8.50;99.90
5617;DHT22;2830;50.656;7.568;2024-02-04T02:52:35;8.50;99.90
5617;DHT22;2830;50.656;7.568;2024-02-04T02:55:01;8.50;99.90
5617;DHT22;2830;50.656;7.568;2024-02-04T02:57:29;8.50;99.90
5617;DHT22;2830;50.656;7.568;2024-02-04T02:59:56;8.50;99.90
5617;DHT22;2830;50.656;7.568;2024-02-04T03:02:22;8.50;99.90
5617;DHT22;2830;50.656;7.568;2024-02-04T03:04:49;8.50;99.90
5617;DHT22;2830;50.656;7.568;2024-02-04T03:07:16;8.40;99.90
5617;DHT22;2830;50.656;7.568;2024-02-04T03:09:43;8.40;99.90
5617;DHT22;2830;50.656;7.568;2024-02-04T03:12:10;8.40;99.90
5617;DHT22;2830;50.656;7.568;2024-02-04T03:14:37;8.50;99.90
5617;DHT22;2830;50.656;7.568;2024-02-04T03:17:04;8.40;99.90
5617;DHT22;2830;50.656;7.568;2024-02-04T03:19:31;8.50;99.90
5617;DHT22;2830;50.656;7.568;2024-02-04T03:21:58;8.50;99.90
5617;DHT22;2830;50.656;7.568;2024-02-04T03:24:25;8.50;99.90
5617;DHT22;2830;50.656;7.568;2024-02-04T03:26:52;8.50;99.90
5617;DHT22;2830;50.656;7.568;2024-02-04T03:29:19;8.50;99.90
5617;DHT22;2830;50.656;7.568;2024-02-04T03:31:46;8.50;99.90
5617;DHT22;2830;50.656;7.568;2024-02-04T03:34:14;8.50;99.90
5617;DHT22;2830;50.656;7.568;2024-02-04T03:36:41;8.50;99.90
5617;DHT22;2830;50.656;7.568;2024-02-04T03:39:07;8.50;99.90
5617;DHT22;2830;50.656;7.568;2024-02-04T03:41:34;8.50;99.90
5617;DHT22;2830;50.656;7.568;2024-02-04T03:44:01;8.40;99.90
5617;DHT22;2830;50.656;7.568;2024-02-04T03:46:28;8.50;99.90
5617;DHT22;2830;50.656;7.568;2024-02-04T03:48:55;8.50;99.90
5617;DHT22;2830;50.656;7.568;2024-02-04T03:51:22;8.50;99.90
5617;DHT22;2830;50.656;7.568;2024-02-04T03:53:50;8.70;99.90
5617;DHT22;2830;50.656;7.568;2024-02-04T03:56:18;8.50;99.90
5617;DHT22;2830;50.656;7.568;2024-02-04T03:58:45;8.50;99.90
5617;DHT22;2830;50.656;7.568;2024-02-04T04:01:12;8.50;99.90
5617;DHT22;2830;50.656;7.568;2024-02-04T04:03:40;8.50;99.90
5617;DHT22;2830;50.656;7.568;2024-02-04T04:06:09;8.50;99.90
5617;DHT22;2830;50.656;7.568;2024-02-04T04:08:37;8.50;99.90
5617;DHT22;2830;50.656;7.568;2024-02-04T04:11:06;8.50;99.90
5617;DHT22;2830;50.656;7.568;2024-02-04T04:13:33;8.50;99.90
5617;DHT22;2830;50.656;7.568;2024-02-04T04:16:02;8.50;99.90
5617;DHT22;2830;50.656;7.568;2024-02-04T04:18:30;8.50;99.90
5617;DHT22;2830;50.656;7.568;2024-02-04T04:20:57;8.50;99.90
5617;DHT22;2830;50.656;7.568;2024-02-04T04:23:24;8.60;99.90
5617;DHT22;2830;50.656;7.568;2024-02-04T04:25:50;8.60;99.90
5617;DHT22;2830;50.656;7.568;2024-02-04T04:28:17;8.50;99.90
5617;DHT22;2830;50.656;7.568;2024-02-04T04:30:44;8.50;99.90
5617;DHT22;2830;50.656;7.568;2024-02-04T04:33:11;8.50;99.90
5617;DHT22;2830;50.656;7.568;2024-02-04T04:35:39;8.50;99.90
5617;DHT22;2830;50.656;7.568;2024-02-04T04:38:06;8.60;99.90
5617;DHT22;2830;50.656;7.568;2024-02-04T04:40:33;8.60;99.90
5617;DHT22;2830;50.656;7.568;2024-02-04T04:42:59;8.60;99.90
5617;DHT22;2830;50.656;7.568;2024-02-04T04:45:27;8.60;99.90
5617;DHT22;2830;50.656;7.568;2024-02-04T04:47:53;8.60;99.90
5617;DHT22;2830;50.656;7.568;2024-02-04T04:50:21;8.60;99.90
5617;DHT22;2830;50.656;7.568;2024-02-04T04:52:48;8.60;99.90
5617;DHT22;2830;50.656;7.568;2024-02-04T04:55:15;8.60;99.90
5617;DHT22;2830;50.656;7.568;2024-02-04T04:57:42;8.60;99.90
5617;DHT22;2830;50.656;7.568;2024-02-04T05:00:09;8.60;99.90
5617;DHT22;2830;50.656;7.568;2024-02-04T05:02:37;8.60;99.90
5617;DHT22;2830;50.656;7.568;2024-02-04T05:05:04;8.60;99.90
5617;DHT22;2830;50.656;7.568;2024-02-04T05:07:32;8.60;99.90
5617;DHT22;2830;50.656;7.568;2024-02-04T05:09:59;8.60;99.90
5617;DHT22;2830;50.656;7.568;2024-02-04T05:12:26;8.60;99.90
5617;DHT22;2830;50.656;7.568;2024-02-04T05:14:53;8.60;99.90
5617;DHT22;2830;50.656;7.568;2024-02-04T05:17:20;8.60;99.90
5617;DHT22;2830;50.656;7.568;2024-02-04T05:19:47;8.70;99.90
5617;DHT22;2830;50.656;7.568;2024-02-04T05:22:13;8.70;99.90
5617;DHT22;2830;50.656;7.568;2024-02-04T05:24:41;8.70;99.90
5617;DHT22;2830;50.656;7.568;2024-02-04T05:27:08;8.70;99.90
5617;DHT22;2830;50.656;7.568;2024-02-04T05:29:35;8.70;99.90
5617;DHT22;2830;50.656;7.568;2024-02-04T05:32:02;8.70;99.90
5617;DHT22;2830;50.656;7.568;2024-02-04T05:34:29;8.70;99.90
5617;DHT22;2830;50.656;7.568;2024-02-04T05:36:58;8.70;99.90
5617;DHT22;2830;50.656;7.568;2024-02-04T05:39:25;8.70;99.90
5617;DHT22;2830;50.656;7.568;2024-02-04T05:41:52;8.70;99.90
5617;DHT22;2830;50.656;7.568;2024-02-04T05:44:18;8.70;99.90
5617;DHT22;2830;50.656;7.568;2024-02-04T05:46:45;8.70;99.90
5617;DHT22;2830;50.656;7.568;2024-02-04T05:49:12;8.70;99.90
5617;DHT22;2830;50.656;7.568;2024-02-04T05:51:40;8.70;99.90
5617;DHT22;2830;50.656;7.568;2024-02-04T05:54:08;8.70;99.90
5617;DHT22;2830;50.656;7.568;2024-02-04T05:56:35;8.70;99.90
5617;DHT22;2830;50.656;7.568;2024-02-04T05:59:02;8.80;99.90
5617;DHT22;2830;50.656;7.568;2024-02-04T06:01:30;8.80;99.90
5617;DHT22;2830;50.656;7.568;2024-02-04T06:03:56;8.80;99.90
5617;DHT22;2830;50.656;7.568;2024-02-04T06:06:23;8.70;99.90
5617;DHT22;2830;50.656;7.568;2024-02-04T06:08:51;8.80;99.90
5617;DHT22;2830;50.656;7.568;2024-02-04T06:11:18;8.80;99.90
5617;DHT22;2830;50.656;7.568;2024-02-04T06:13:45;8.80;99.90
5617;DHT22;2830;50.656;7.568;2024-02-04T06:16:12;8.80;99.90
5617;DHT22;2830;50.656;7.568;2024-02-04T06:18:39;8.80;99.90
5617;DHT22;2830;50.656;7.568;2024-02-04T06:21:07;8.80;99.90
5617;DHT22;2830;50.656;7.568;2024-02-04T06:23:35;8.80;99.90
5617;DHT22;2830;50.656;7.568;2024-02-04T06:26:02;8.80;99.90
5617;DHT22;2830;50.656;7.568;2024-02-04T06:28:29;8.80;99.90
5617;DHT22;2830;50.656;7.568;2024-02-04T06:30:56;8.80;99.90
5617;DHT22;2830;50.656;7.568;2024-02-04T06:33:24;8.80;99.90
5617;DHT22;2830;50.656;7.568;2024-02-04T06:35:52;8.80;99.90
5617;DHT22;2830;50.656;7.568;2024-02-04T06:38:19;8.80;99.90
5617;DHT22;2830;50.656;7.568;2024-02-04T06:40:46;8.80;99.90
5617;DHT22;2830;50.656;7.568;2024-02-04T06:43:13;8.80;99.90
5617;DHT22;2830;50.656;7.568;2024-02-04T06:45:40;8.80;99.90
5617;DHT22;2830;50.656;7.568;2024-02-04T06:48:07;8.80;99.90
5617;DHT22;2830;50.656;7.568;2024-02-04T06:50:35;8.80;99.90
5617;DHT22;2830;50.656;7.568;2024-02-04T06:53:03;8.80;99.90
5617;DHT22;2830;50.656;7.568;2024-02-04T06:55:30;8.70;99.90
5617;DHT22;2830;50.656;7.568;2024-02-04T06:57:57;8.70;99.90
5617;DHT22;2830;50.656;7.568;2024-02-04T07:00:24;8.80;99.90
5617;DHT22;2830;50.656;7.568;2024-02-04T07:02:51;8.80;99.90
5617;DHT22;2830;50.656;7.568;2024-02-04T07:05:18;8.80;99.90
5617;DHT22;2830;50.656;7.568;2024-02-04T07:07:47;8.80;99.90
5617;DHT22;2830;50.656;7.568;2024-02-04T07:10:15;8.80;99.90
5617;DHT22;2830;50.656;7.568;2024-02-04T07:12:43;8.80;99.90
5617;DHT22;2830;50.656;7.568;2024-02-04T07:15:09;8.90;99.90
5617;DHT22;2830;50.656;7.568;2024-02-04T07:17:36;8.90;99.90
5617;DHT22;2830;50.656;7.568;2024-02-04T07:20:04;8.90;99.90
5617;DHT22;2830;50.656;7.568;2024-02-04T07:22:32;8.90;99.90
5617;DHT22;2830;50.656;7.568;2024-02-04T07:25:03;8.90;99.90
5617;DHT22;2830;50.656;7.568;2024-02-04T07:27:30;8.80;99.90
5617;DHT22;2830;50.656;7.568;2024-02-04T07:29:57;8.90;99.90
5617;DHT22;2830;50.656;7.568;2024-02-04T07:32:24;8.90;99.90
5617;DHT22;2830;50.656;7.568;2024-02-04T07:34:51;8.80;99.90
5617;DHT22;2830;50.656;7.568;2024-02-04T07:37:18;8.80;99.90
5617;DHT22;2830;50.656;7.568;2024-02-04T07:39:46;8.80;99.90
5617;DHT22;2830;50.656;7.568;2024-02-04T07:42:13;8.80;99.90
5617;DHT22;2830;50.656;7.568;2024-02-04T07:44:40;8.80;99.90
5617;DHT22;2830;50.656;7.568;2024-02-04T07:47:06;8.90;99.90
5617;DHT22;2830;50.656;7.568;2024-02-04T07:49:33;8.80;99.90
5617;DHT22;2830;50.656;7.568;2024-02-04T07:52:01;8.80;99.90
5617;DHT22;2830;50.656;7.568;2024-02-04T07:54:27;8.90;99.90
5617;DHT22;2830;50.656;7.568;2024-02-04T07:56:54;8.90;99.90
5617;DHT22;2830;50.656;7.568;2024-02-04T07:59:21;8.90;99.90
5617;DHT22;2830;50.656;7.568;2024-02-04T08:01:48;8.90;99.90
5617;DHT22;2830;50.656;7.568;2024-02-04T08:04:15;9.00;99.90
5617;DHT22;2830;50.656;7.568;2024-02-04T08:06:43;9.00;99.90
5617;DHT22;2830;50.656;7.568;2024-02-04T08:09:10;9.00;99.90
5617;DHT22;2830;50.656;7.568;2024-02-04T08:11:37;8.90;99.90
5617;DHT22;2830;50.656;7.568;2024-02-04T08:14:04;9.00;99.90
5617;DHT22;2830;50.656;7.568;2024-02-04T08:16:31;9.00;99.90
5617;DHT22;2830;50.656;7.568;2024-02-04T08:18:58;9.00;99.90
5617;DHT22;2830;50.656;7.568;2024-02-04T08:21:25;9.00;99.90
5617;DHT22;2830;50.656;7.568;2024-02-04T08:23:53;9.00;99.90
5617;DHT22;2830;50.656;7.568;2024-02-04T08:26:20;9.10;99.90
5617;DHT22;2830;50.656;7.568;2024-02-04T08:28:47;9.10;99.90
5617;DHT22;2830;50.656;7.568;2024-02-04T08:31:14;9.10;99.90
5617;DHT22;2830;50.656;7.568;2024-02-04T08:33:40;9.10;99.90
5617;DHT22;2830;50.656;7.568;2024-02-04T08:36:08;9.10;99.90
5617;DHT22;2830;50.656;7.568;2024-02-04T08:38:37;9.10;99.90
5617;DHT22;2830;50.656;7.568;2024-02-04T08:41:04;9.20;99.90
5617;DHT22;2830;50.656;7.568;2024-02-04T08:43:31;9.20;99.90
5617;DHT22;2830;50.656;7.568;2024-02-04T08:45:58;9.20;99.90
5617;DHT22;2830;50.656;7.568;2024-02-04T08:48:36;9.10;99.90
5617;DHT22;2830;50.656;7.568;2024-02-04T08:51:04;9.20;99.90
5617;DHT22;2830;50.656;7.568;2024-02-04T08:53:31;9.30;99.90
5617;DHT22;2830;50.656;7.568;2024-02-04T08:55:58;9.50;99.90
5617;DHT22;2830;50.656;7.568;2024-02-04T08:58:25;9.60;99.90
5617;DHT22;2830;50.656;7.568;2024-02-04T09:00:52;9.70;99.90
5617;DHT22;2830;50.656;7.568;2024-02-04T09:03:19;9.80;99.90
5617;DHT22;2830;50.656;7.568;2024-02-04T09:05:46;9.80;99.90
5617;DHT22;2830;50.656;7.568;2024-02-04T09:08:13;9.90;99.90
5617;DHT22;2830;50.656;7.568;2024-02-04T09:10:40;9.80;99.90
5617;DHT22;2830;50.656;7.568;2024-02-04T09:13:08;9.80;99.90
5617;DHT22;2830;50.656;7.568;2024-02-04T09:15:35;9.70;99.90
5617;DHT22;2830;50.656;7.568;2024-02-04T09:18:06;9.70;99.90
5617;DHT22;2830;50.656;7.568;2024-02-04T09:20:34;9.60;99.90
5617;DHT22;2830;50.656;7.568;2024-02-04T09:23:05;9.70;99.90
5617;DHT22;2830;50.656;7.568;2024-02-04T09:25:33;9.70;99.90
5617;DHT22;2830;50.656;7.568;2024-02-04T09:28:00;9.70;99.90
5617;DHT22;2830;50.656;7.568;2024-02-04T09:30:27;9.80;99.90
5617;DHT22;2830;50.656;7.568;2024-02-04T09:32:54;9.80;99.90
5617;DHT22;2830;50.656;7.568;2024-02-04T09:35:21;9.80;99.90
5617;DHT22;2830;50.656;7.568;2024-02-04T09:37:48;9.80;99.90
5617;DHT22;2830;50.656;7.568;2024-02-04T09:40:16;9.80;99.90
5617;DHT22;2830;50.656;7.568;2024-02-04T09:42:43;9.80;99.90
5617;DHT22;2830;50.656;7.568;2024-02-04T09:45:14;9.80;99.90
5617;DHT22;2830;50.656;7.568;2024-02-04T09:47:42;9.90;99.90
5617;DHT22;2830;50.656;7.568;2024-02-04T09:50:11;10.00;99.90
5617;DHT22;2830;50.656;7.568;2024-02-04T09:52:40;10.00;99.90
5617;DHT22;2830;50.656;7.568;2024-02-04T09:55:13;10.00;99.90
5617;DHT22;2830;50.656;7.568;2024-02-04T09:57:42;10.10;99.90
5617;DHT22;2830;50.656;7.568;2024-02-04T10:00:12;10.20;99.90
5617;DHT22;2830;50.656;7.568;2024-02-04T10:02:41;10.10;99.90
5617;DHT22;2830;50.656;7.568;2024-02-04T10:05:08;10.00;99.90
5617;DHT22;2830;50.656;7.568;2024-02-04T10:07:37;10.10;99.90
5617;DHT22;2830;50.656;7.568;2024-02-04T10:10:06;10.30;99.90
5617;DHT22;2830;50.656;7.568;2024-02-04T10:12:34;10.40;99.90
5617;DHT22;2830;50.656;7.568;2024-02-04T10:15:02;10.30;99.90
5617;DHT22;2830;50.656;7.568;2024-02-04T10:17:33;10.30;99.90
5617;DHT22;2830;50.656;7.568;2024-02-04T10:20:00;10.30;99.90
5617;DHT22;2830;50.656;7.568;2024-02-04T10:22:28;10.30;99.90
5617;DHT22;2830;50.656;7.568;2024-02-04T10:25:08;10.40;99.90
5617;DHT22;2830;50.656;7.568;2024-02-04T10:27:35;10.50;99.90
5617;DHT22;2830;50.656;7.568;2024-02-04T10:30:04;10.60;99.90
5617;DHT22;2830;50.656;7.568;2024-02-04T10:32:31;10.60;99.90
5617;DHT22;2830;50.656;7.568;2024-02-04T10:34:58;10.60;99.90
5617;DHT22;2830;50.656;7.568;2024-02-04T10:37:27;10.70;99.90
5617;DHT22;2830;50.656;7.568;2024-02-04T10:39:56;10.80;99.90
5617;DHT22;2830;50.656;7.568;2024-02-04T10:42:27;10.90;99.90
5617;DHT22;2830;50.656;7.568;2024-02-04T10:44:58;11.00;99.90
5617;DHT22;2830;50.656;7.568;2024-02-04T10:47:31;11.10;99.90
5617;DHT22;2830;50.656;7.568;2024-02-04T10:50:02;11.00;99.90
5617;DHT22;2830;50.656;7.568;2024-02-04T10:52:40;10.90;99.90
5617;DHT22;2830;50.656;7.568;2024-02-04T10:55:11;10.80;99.90
5617;DHT22;2830;50.656;7.568;2024-02-04T10:57:39;10.70;99.90
5617;DHT22;2830;50.656;7.568;2024-02-04T11:00:08;10.70;99.90
5617;DHT22;2830;50.656;7.568;2024-02-04T11:02:39;10.80;99.90
5617;DHT22;2830;50.656;7.568;2024-02-04T11:05:08;10.70;99.90
5617;DHT22;2830;50.656;7.568;2024-02-04T11:07:36;10.90;99.90
5617;DHT22;2830;50.656;7.568;2024-02-04T11:10:03;10.90;99.90
5617;DHT22;2830;50.656;7.568;2024-02-04T11:12:33;10.90;99.90
5617;DHT22;2830;50.656;7.568;2024-02-04T11:15:05;10.90;99.90
5617;DHT22;2830;50.656;7.568;2024-02-04T11:26:22;11.10;99.90
5617;DHT22;2830;50.656;7.568;2024-02-04T11:28:50;11.10;99.90
5617;DHT22;2830;50.656;7.568;2024-02-04T11:31:17;11.10;99.90
5617;DHT22;2830;50.656;7.568;2024-02-04T11:33:45;11.20;99.90
5617;DHT22;2830;50.656;7.568;2024-02-04T11:36:14;11.30;99.90
5617;DHT22;2830;50.656;7.568;2024-02-04T11:38:42;11.50;99.90
5617;DHT22;2830;50.656;7.568;2024-02-04T11:41:09;11.70;99.90
5617;DHT22;2830;50.656;7.568;2024-02-04T11:43:37;11.70;99.90
5617;DHT22;2830;50.656;7.568;2024-02-04T11:46:16;11.60;99.90
5617;DHT22;2830;50.656;7.568;2024-02-04T11:48:54;11.50;99.90
5617;DHT22;2830;50.656;7.568;2024-02-04T11:51:22;11.30;99.90
5617;DHT22;2830;50.656;7.568;2024-02-04T11:53:51;11.40;99.90
5617;DHT22;2830;50.656;7.568;2024-02-04T11:56:19;11.40;99.90
5617;DHT22;2830;50.656;7.568;2024-02-04T11:58:46;11.30;99.90
5617;DHT22;2830;50.656;7.568;2024-02-04T12:01:14;11.30;99.90
5617;DHT22;2830;50.656;7.568;2024-02-04T12:03:41;11.40;99.90
5617;DHT22;2830;50.656;7.568;2024-02-04T12:06:08;11.50;99.90
5617;DHT22;2830;50.656;7.568;2024-02-04T12:08:37;11.50;99.90
5617;DHT22;2830;50.656;7.568;2024-02-04T12:11:05;11.30;99.90
5617;DHT22;2830;50.656;7.568;2024-02-04T12:13:32;11.20;99.90
5617;DHT22;2830;50.656;7.568;2024-02-04T12:16:01;11.00;99.90
5617;DHT22;2830;50.656;7.568;2024-02-04T12:18:29;10.90;99.90
5617;DHT22;2830;50.656;7.568;2024-02-04T12:20:56;10.80;99.90
5617;DHT22;2830;50.656;7.568;2024-02-04T12:23:23;10.80;99.90
5617;DHT22;2830;50.656;7.568;2024-02-04T12:25:50;11.00;99.90
5617;DHT22;2830;50.656;7.568;2024-02-04T12:28:17;11.10;99.90
5617;DHT22;2830;50.656;7.568;2024-02-04T12:30:54;11.10;99.90
5617;DHT22;2830;50.656;7.568;2024-02-04T12:33:25;11.00;99.90
5617;DHT22;2830;50.656;7.568;2024-02-04T12:35:52;11.00;99.90
5617;DHT22;2830;50.656;7.568;2024-02-04T12:38:22;10.90;99.90
5617;DHT22;2830;50.656;7.568;2024-02-04T12:40:49;11.00;99.90
5617;DHT22;2830;50.656;7.568;2024-02-04T12:43:17;11.10;99.90
5617;DHT22;2830;50.656;7.568;2024-02-04T12:45:45;11.10;99.90
5617;DHT22;2830;50.656;7.568;2024-02-04T12:48:15;11.20;99.90
5617;DHT22;2830;50.656;7.568;2024-02-04T12:50:43;11.30;99.90
5617;DHT22;2830;50.656;7.568;2024-02-04T12:53:10;11.40;99.90
5617;DHT22;2830;50.656;7.568;2024-02-04T12:55:42;11.40;99.90
5617;DHT22;2830;50.656;7.568;2024-02-04T12:58:13;11.30;99.90
5617;DHT22;2830;50.656;7.568;2024-02-04T13:00:43;11.20;99.90
5617;DHT22;2830;50.656;7.568;2024-02-04T13:03:15;11.20;99.90
5617;DHT22;2830;50.656;7.568;2024-02-04T13:05:42;11.10;99.90
5617;DHT22;2830;50.656;7.568;2024-02-04T13:08:09;11.10;99.90
5617;DHT22;2830;50.656;7.568;2024-02-04T13:10:36;11.10;99.90
5617;DHT22;2830;50.656;7.568;2024-02-04T13:13:08;11.20;99.90
5617;DHT22;2830;50.656;7.568;2024-02-04T13:15:40;11.20;99.90
5617;DHT22;2830;50.656;7.568;2024-02-04T13:18:08;11.20;99.90
5617;DHT22;2830;50.656;7.568;2024-02-04T13:20:36;11.10;99.90
5617;DHT22;2830;50.656;7.568;2024-02-04T13:23:03;11.20;99.90
5617;DHT22;2830;50.656;7.568;2024-02-04T13:25:33;11.20;99.90
5617;DHT22;2830;50.656;7.568;2024-02-04T13:28:01;11.20;99.90
5617;DHT22;2830;50.656;7.568;2024-02-04T13:30:28;11.10;99.90
5617;DHT22;2830;50.656;7.568;2024-02-04T13:32:56;11.10;99.90
5617;DHT22;2830;50.656;7.568;2024-02-04T13:35:24;11.10;99.90
5617;DHT22;2830;50.656;7.568;2024-02-04T13:37:51;11.10;99.90
5617;DHT22;2830;50.656;7.568;2024-02-04T13:40:20;11.10;99.90
5617;DHT22;2830;50.656;7.568;2024-02-04T13:42:47;11.10;99.90
5617;DHT22;2830;50.656;7.568;2024-02-04T13:45:15;11.10;99.90
5617;DHT22;2830;50.656;7.568;2024-02-04T13:47:43;11.10;99.90
5617;DHT22;2830;50.656;7.568;2024-02-04T13:50:11;11.10;99.90
5617;DHT22;2830;50.656;7.568;2024-02-04T13:52:39;11.10;99.90
5617;DHT22;2830;50.656;7.568;2024-02-04T13:55:07;11.00;99.90
5617;DHT22;2830;50.656;7.568;2024-02-04T13:57:35;11.00;99.90
5617;DHT22;2830;50.656;7.568;2024-02-04T14:00:03;10.90;99.90
5617;DHT22;2830;50.656;7.568;2024-02-04T14:02:35;10.90;99.90
5617;DHT22;2830;50.656;7.568;2024-02-04T14:05:02;10.90;99.90
5617;DHT22;2830;50.656;7.568;2024-02-04T14:07:30;10.80;99.90
5617;DHT22;2830;50.656;7.568;2024-02-04T14:09:57;10.80;99.90
5617;DHT22;2830;50.656;7.568;2024-02-04T14:12:24;10.80;99.90
5617;DHT22;2830;50.656;7.568;2024-02-04T14:14:51;10.70;99.90
5617;DHT22;2830;50.656;7.568;2024-02-04T14:17:18;10.70;99.90
5617;DHT22;2830;50.656;7.568;2024-02-04T14:19:45;10.70;99.90
5617;DHT22;2830;50.656;7.568;2024-02-04T14:22:15;10.80;99.90
5617;DHT22;2830;50.656;7.568;2024-02-04T14:24:44;10.80;99.90
5617;DHT22;2830;50.656;7.568;2024-02-04T14:27:12;10.80;99.90
5617;DHT22;2830;50.656;7.568;2024-02-04T14:29:39;10.80;99.90
5617;DHT22;2830;50.656;7.568;2024-02-04T14:32:06;10.80;99.90
5617;DHT22;2830;50.656;7.568;2024-02-04T14:34:34;10.80;99.90
5617;DHT22;2830;50.656;7.568;2024-02-04T14:37:02;10.80;99.90
5617;DHT22;2830;50.656;7.568;2024-02-04T14:39:28;10.80;99.90
5617;DHT22;2830;50.656;7.568;2024-02-04T14:41:58;10.80;99.90
5617;DHT22;2830;50.656;7.568;2024-02-04T14:44:25;10.80;99.90
5617;DHT22;2830;50.656;7.568;2024-02-04T14:46:52;10.70;99.90
5617;DHT22;2830;50.656;7.568;2024-02-04T14:49:19;10.70;99.90
5617;DHT22;2830;50.656;7.568;2024-02-04T14:51:46;10.60;99.90
5617;DHT22;2830;50.656;7.568;2024-02-04T14:54:14;10.60;99.90
5617;DHT22;2830;50.656;7.568;2024-02-04T14:56:41;10.60;99.90
5617;DHT22;2830;50.656;7.568;2024-02-04T14:59:10;10.60;99.90
5617;DHT22;2830;50.656;7.568;2024-02-04T15:01:48;10.50;99.90
5617;DHT22;2830;50.656;7.568;2024-02-04T15:04:16;10.50;99.90
5617;DHT22;2830;50.656;7.568;2024-02-04T15:06:43;10.50;99.90
5617;DHT22;2830;50.656;7.568;2024-02-04T15:09:11;10.50;99.90
5617;DHT22;2830;50.656;7.568;2024-02-04T15:11:39;10.50;99.90
5617;DHT22;2830;50.656;7.568;2024-02-04T15:14:06;10.50;99.90
5617;DHT22;2830;50.656;7.568;2024-02-04T15:16:35;10.60;99.90
5617;DHT22;2830;50.656;7.568;2024-02-04T15:19:06;10.60;99.90
5617;DHT22;2830;50.656;7.568;2024-02-04T15:21:34;10.60;99.90
5617;DHT22;2830;50.656;7.568;2024-02-04T15:24:02;10.60;99.90
5617;DHT22;2830;50.656;7.568;2024-02-04T15:26:35;10.60;99.90
5617;DHT22;2830;50.656;7.568;2024-02-04T15:29:07;10.60;99.90
5617;DHT22;2830;50.656;7.568;2024-02-04T15:31:36;10.60;99.90
5617;DHT22;2830;50.656;7.568;2024-02-04T15:34:04;10.60;99.90
5617;DHT22;2830;50.656;7.568;2024-02-04T15:36:32;10.60;99.90
5617;DHT22;2830;50.656;7.568;2024-02-04T15:39:00;10.60;99.90
5617;DHT22;2830;50.656;7.568;2024-02-04T15:41:29;10.60;99.90
5617;DHT22;2830;50.656;7.568;2024-02-04T15:43:56;10.50;99.90
5617;DHT22;2830;50.656;7.568;2024-02-04T15:46:24;10.50;99.90
5617;DHT22;2830;50.656;7.568;2024-02-04T15:48:52;10.50;99.90
5617;DHT22;2830;50.656;7.568;2024-02-04T15:51:23;10.50;99.90
5617;DHT22;2830;50.656;7.568;2024-02-04T15:53:50;10.50;99.90
5617;DHT22;2830;50.656;7.568;2024-02-04T15:56:19;10.50;99.90
5617;DHT22;2830;50.656;7.568;2024-02-04T15:58:52;10.40;99.90
5617;DHT22;2830;50.656;7.568;2024-02-04T16:01:23;10.40;99.90
5617;DHT22;2830;50.656;7.568;2024-02-04T16:03:52;10.30;99.90
5617;DHT22;2830;50.656;7.568;2024-02-04T16:06:21;10.30;99.90
5617;DHT22;2830;50.656;7.568;2024-02-04T16:08:49;10.30;99.90
5617;DHT22;2830;50.656;7.568;2024-02-04T16:11:19;10.30;99.90
5617;DHT22;2830;50.656;7.568;2024-02-04T16:13:46;10.30;99.90
5617;DHT22;2830;50.656;7.568;2024-02-04T16:16:20;10.40;99.90
5617;DHT22;2830;50.656;7.568;2024-02-04T16:18:48;10.40;99.90
5617;DHT22;2830;50.656;7.568;2024-02-04T16:21:15;10.40;99.90
5617;DHT22;2830;50.656;7.568;2024-02-04T16:23:43;10.50;99.90
5617;DHT22;2830;50.656;7.568;2024-02-04T16:26:10;10.50;99.90
5617;DHT22;2830;50.656;7.568;2024-02-04T16:28:38;10.60;99.90
5617;DHT22;2830;50.656;7.568;2024-02-04T16:31:06;10.50;99.90
5617;DHT22;2830;50.656;7.568;2024-02-04T16:33:34;10.50;99.90
5617;DHT22;2830;50.656;7.568;2024-02-04T16:36:02;10.60;99.90
5617;DHT22;2830;50.656;7.568;2024-02-04T16:38:31;10.60;99.90